Terminal Aerodrome Forecast
Issued by NWS Cleveland, OH

Home | Current Version | Previous Version | Graphics & Text | Print | Product List | Glossary On
Versions: 1 2 3 4 5 6 7 8 9 10 11 12 13 14 15 16
697
FTUS41 KCLE 200906 AAA
TAFCAK
TAF AMD
KCAK 200906Z 2009/2106 VRB03KT P6SM SCT040 BKN120
      TEMPO 2010/2014 3SM BR BKN020
     FM202000 28005KT P6SM VCTS SCT025CB OVC050
     FM202300 35004KT P6SM SCT050 BKN080=

USA.gov is the U.S. government's official web portal to all federal, state and local government web resources and services.